createdAt,value
2022-11-25T00:01:12.554Z,11.80
2022-11-25T00:04:11.469Z,11.80
2022-11-25T00:06:38.319Z,11.50
2022-11-25T00:09:08.072Z,11.60
2022-11-25T00:11:36.482Z,11.60
2022-11-25T00:14:03.695Z,11.60
2022-11-25T00:16:30.399Z,11.50
2022-11-25T00:18:57.814Z,11.50
2022-11-25T00:21:27.077Z,11.90
2022-11-25T00:23:59.051Z,12.20
2022-11-25T00:26:27.320Z,12.10
2022-11-25T00:28:57.552Z,11.70
2022-11-25T00:31:30.425Z,11.60
2022-11-25T00:33:58.041Z,12.00
2022-11-25T00:36:30.843Z,11.80
2022-11-25T00:39:03.020Z,12.00
2022-11-25T00:41:49.021Z,12.10
2022-11-25T00:44:39.404Z,11.60
2022-11-25T00:47:12.683Z,11.40
2022-11-25T00:49:41.371Z,11.80
2022-11-25T00:52:09.503Z,11.90
2022-11-25T00:54:36.347Z,11.50
2022-11-25T00:57:03.238Z,11.60
2022-11-25T00:59:30.196Z,11.70
2022-11-25T01:01:57.167Z,11.40
2022-11-25T01:04:24.261Z,11.10
2022-11-25T01:06:51.091Z,11.50
2022-11-25T01:09:17.794Z,11.90
2022-11-25T01:11:44.513Z,11.80
2022-11-25T01:14:11.210Z,11.70
2022-11-25T01:16:38.090Z,11.80
2022-11-25T01:19:05.020Z,11.80
2022-11-25T01:21:33.611Z,11.60
2022-11-25T01:24:02.763Z,11.80
2022-11-25T01:26:30.544Z,11.90
2022-11-25T01:29:02.495Z,11.60
2022-11-25T01:31:32.144Z,11.30
2022-11-25T01:34:04.739Z,12.20
2022-11-25T01:36:31.528Z,12.00
2022-11-25T01:39:00.715Z,11.80
2022-11-25T01:41:29.757Z,11.90
2022-11-25T01:44:23.756Z,11.90
2022-11-25T01:47:18.521Z,11.70
2022-11-25T01:49:53.359Z,12.20
2022-11-25T01:52:54.423Z,12.10
2022-11-25T01:56:19.264Z,12.10
2022-11-25T01:58:48.070Z,11.40
2022-11-25T02:01:16.194Z,11.50
2022-11-25T02:03:47.458Z,11.70
2022-11-25T02:06:21.740Z,11.60
2022-11-25T02:08:55.190Z,11.60
2022-11-25T02:11:24.093Z,11.60
2022-11-25T02:13:52.207Z,11.50
2022-11-25T02:16:19.225Z,11.50
2022-11-25T02:18:46.268Z,11.80
2022-11-25T02:21:17.902Z,12.20
2022-11-25T02:24:01.590Z,12.30
2022-11-25T02:26:28.556Z,12.50
2022-11-25T02:28:55.429Z,12.60
2022-11-25T02:31:23.441Z,12.40
2022-11-25T02:33:50.459Z,12.40
2022-11-25T02:36:21.029Z,12.60
2022-11-25T02:38:52.709Z,13.10
2022-11-25T02:41:25.080Z,12.70
2022-11-25T02:43:51.795Z,12.20
2022-11-25T02:46:22.702Z,11.50
2022-11-25T02:51:41.310Z,13.20
2022-11-25T02:54:09.735Z,13.20
2022-11-25T02:56:37.114Z,12.70
2022-11-25T02:59:04.854Z,12.70
2022-11-25T03:01:32.572Z,12.90
2022-11-25T03:04:00.003Z,12.70
2022-11-25T03:06:26.796Z,12.50
2022-11-25T03:08:53.690Z,12.70
2022-11-25T03:11:20.399Z,13.30
2022-11-25T03:13:47.142Z,12.90
2022-11-25T03:16:15.014Z,12.80
2022-11-25T03:18:41.840Z,13.00
2022-11-25T03:21:08.502Z,12.70
2022-11-25T03:23:41.205Z,13.00
2022-11-25T03:26:07.916Z,12.80
2022-11-25T03:28:34.646Z,13.10
2022-11-25T03:31:01.408Z,13.10
2022-11-25T03:33:28.064Z,13.10
2022-11-25T03:35:55.790Z,13.30
2022-11-25T03:38:22.469Z,13.30
2022-11-25T03:40:50.295Z,13.20
2022-11-25T03:43:17.136Z,13.00
2022-11-25T03:45:43.868Z,12.70
2022-11-25T03:48:12.579Z,13.40
2022-11-25T03:50:40.331Z,13.20
2022-11-25T03:53:06.975Z,13.40
2022-11-25T03:55:33.717Z,13.40
2022-11-25T03:58:00.655Z,13.20
2022-11-25T04:00:27.412Z,13.20
2022-11-25T04:02:54.202Z,13.30
2022-11-25T04:05:20.895Z,13.40
2022-11-25T04:07:47.639Z,13.30
2022-11-25T04:10:14.356Z,13.40
2022-11-25T04:12:46.923Z,13.30
2022-11-25T04:15:15.778Z,13.40
2022-11-25T04:17:42.639Z,13.50
2022-11-25T04:20:10.871Z,13.70
2022-11-25T04:22:37.694Z,13.10
2022-11-25T04:25:05.281Z,13.20
2022-11-25T04:27:32.115Z,12.80
2022-11-25T04:29:58.890Z,13.10
2022-11-25T04:32:25.761Z,13.10
2022-11-25T04:34:52.571Z,13.40
2022-11-25T04:37:19.344Z,12.70
2022-11-25T04:39:46.042Z,13.10
2022-11-25T04:42:31.406Z,13.20
2022-11-25T04:45:21.501Z,13.10
2022-11-25T04:47:46.004Z,12.90
2022-11-25T04:50:19.159Z,13.30
2022-11-25T04:52:46.039Z,13.30
2022-11-25T04:55:12.769Z,13.50
2022-11-25T04:57:39.604Z,13.10
2022-11-25T05:00:07.646Z,12.90
2022-11-25T05:02:35.827Z,12.70
2022-11-25T05:05:02.666Z,12.90
2022-11-25T05:07:29.463Z,12.90
2022-11-25T05:09:57.874Z,13.00
2022-11-25T05:12:27.731Z,13.10
2022-11-25T05:14:55.190Z,13.40
2022-11-25T05:17:24.652Z,13.00
2022-11-25T05:19:52.211Z,12.80
2022-11-25T05:22:21.254Z,13.00
2022-11-25T05:24:48.516Z,13.40
2022-11-25T05:27:15.799Z,13.20
2022-11-25T05:29:45.203Z,13.30
2022-11-25T05:32:12.595Z,13.20
2022-11-25T05:34:40.229Z,13.10
2022-11-25T05:37:09.294Z,13.30
2022-11-25T05:39:37.124Z,13.30
2022-11-25T05:42:03.981Z,13.20
2022-11-25T05:44:30.744Z,13.20
2022-11-25T05:46:57.456Z,13.00
2022-11-25T05:49:24.120Z,12.50
2022-11-25T05:52:01.284Z,12.20
2022-11-25T05:54:28.007Z,12.30
2022-11-25T05:56:54.749Z,12.10
2022-11-25T05:59:21.545Z,12.20
2022-11-25T06:01:48.261Z,12.20
2022-11-25T06:04:15.039Z,12.30
2022-11-25T06:06:41.720Z,12.30
2022-11-25T06:09:08.382Z,12.40
2022-11-25T06:11:35.132Z,12.50
2022-11-25T06:14:01.887Z,12.10
2022-11-25T06:16:28.944Z,12.50
2022-11-25T06:18:55.828Z,12.90
2022-11-25T06:21:22.573Z,12.80
2022-11-25T06:23:49.336Z,13.20
2022-11-25T06:26:23.067Z,13.00
2022-11-25T06:28:53.707Z,13.20
2022-11-25T06:31:23.332Z,13.30
2022-11-25T06:33:52.061Z,13.20
2022-11-25T06:36:21.765Z,13.00
2022-11-25T06:38:54.266Z,12.80
2022-11-25T06:41:22.484Z,11.40
2022-11-25T06:43:49.165Z,10.80
2022-11-25T06:46:24.160Z,10.70
2022-11-25T06:48:55.280Z,11.00
2022-11-25T06:51:23.995Z,11.50
2022-11-25T06:53:50.679Z,11.30
2022-11-25T06:56:23.682Z,10.40
2022-11-25T06:58:51.084Z,10.70
2022-11-25T07:01:23.591Z,12.80
2022-11-25T07:03:53.385Z,12.90
2022-11-25T07:06:21.104Z,13.40
2022-11-25T07:08:48.596Z,13.20
2022-11-25T07:11:18.269Z,13.60
2022-11-25T07:13:45.521Z,14.30
2022-11-25T07:16:13.096Z,11.80
2022-11-25T07:18:41.273Z,10.00
2022-11-25T07:21:10.940Z,9.40
2022-11-25T07:23:38.894Z,9.10
2022-11-25T07:26:12.416Z,9.00
2022-11-25T07:28:39.979Z,8.80
2022-11-25T07:31:32.412Z,8.70
2022-11-25T07:34:03.386Z,8.60
2022-11-25T07:36:32.102Z,8.50
2022-11-25T07:39:00.630Z,8.90
2022-11-25T07:41:28.764Z,8.80
2022-11-25T07:43:59.802Z,9.10
2022-11-25T07:46:36.889Z,9.10
2022-11-25T07:49:09.868Z,8.70
2022-11-25T07:51:41.930Z,8.50
2022-11-25T07:54:11.220Z,8.30
2022-11-25T07:56:41.618Z,8.20
2022-11-25T07:59:12.399Z,8.50
2022-11-25T08:01:40.993Z,8.40
2022-11-25T08:04:09.365Z,8.20
2022-11-25T08:06:40.215Z,8.30
2022-11-25T08:09:07.032Z,8.20
2022-11-25T08:11:33.748Z,8.20
2022-11-25T08:14:01.871Z,8.80
2022-11-25T08:16:33.280Z,9.70
2022-11-25T08:19:10.598Z,9.00
2022-11-25T08:21:37.686Z,8.60
2022-11-25T08:24:05.355Z,11.40
2022-11-25T08:26:36.252Z,13.30
2022-11-25T08:29:05.642Z,10.00
2022-11-25T08:31:34.876Z,9.60
2022-11-25T08:34:02.542Z,9.20
2022-11-25T08:36:30.229Z,9.40
2022-11-25T08:38:58.900Z,9.10
2022-11-25T08:41:32.781Z,9.00
2022-11-25T08:44:01.698Z,8.90
2022-11-25T08:46:34.264Z,8.70
2022-11-25T08:49:01.107Z,9.60
2022-11-25T08:51:33.391Z,9.00
2022-11-25T08:54:00.547Z,8.90
2022-11-25T08:56:27.507Z,9.00
2022-11-25T08:58:55.363Z,8.80
2022-11-25T09:01:24.369Z,8.80
2022-11-25T09:03:53.283Z,8.70
2022-11-25T09:06:20.570Z,9.50
2022-11-25T09:08:48.080Z,9.10
2022-11-25T09:11:15.580Z,8.70
2022-11-25T09:13:42.468Z,8.70
2022-11-25T09:16:09.765Z,8.70
2022-11-25T09:18:37.827Z,9.20
2022-11-25T09:21:14.416Z,9.10
2022-11-25T09:23:41.298Z,9.40
2022-11-25T09:26:35.884Z,8.80
2022-11-25T09:29:04.682Z,8.80
2022-11-25T09:31:31.701Z,9.00
2022-11-25T09:33:58.733Z,9.30
2022-11-25T09:36:39.857Z,10.30
2022-11-25T09:39:09.773Z,10.90
2022-11-25T09:42:24.460Z,10.80
2022-11-25T09:45:33.656Z,10.70
2022-11-25T09:48:30.524Z,10.10
2022-11-25T09:51:25.888Z,11.10
2022-11-25T09:54:21.280Z,11.00
2022-11-25T09:57:03.277Z,10.70
2022-11-25T09:59:39.512Z,10.40
2022-11-25T10:02:35.796Z,10.20
2022-11-25T10:05:32.554Z,12.00
2022-11-25T10:08:18.127Z,11.80
2022-11-25T10:10:47.790Z,11.80
2022-11-25T10:13:22.139Z,11.00
2022-11-25T10:15:51.109Z,11.10
2022-11-25T10:18:25.112Z,10.50
2022-11-25T10:20:53.078Z,10.50
2022-11-25T10:23:32.090Z,10.80
2022-11-25T10:26:02.785Z,10.50
2022-11-25T10:28:32.056Z,10.90
2022-11-25T10:31:22.811Z,10.90
2022-11-25T10:33:57.338Z,10.40
2022-11-25T10:36:39.888Z,10.70
2022-11-25T10:39:31.714Z,11.30
2022-11-25T10:42:19.889Z,11.70
2022-11-25T10:44:46.581Z,11.00
2022-11-25T10:47:33.924Z,12.20
2022-11-25T10:50:33.990Z,12.10
2022-11-25T10:53:26.552Z,13.10
2022-11-25T10:56:01.585Z,13.00
2022-11-25T10:58:36.958Z,12.50
2022-11-25T11:01:23.742Z,12.70
2022-11-25T11:04:03.571Z,13.00
2022-11-25T11:06:37.731Z,13.70
2022-11-25T11:09:05.135Z,13.20
2022-11-25T11:11:32.054Z,13.20
2022-11-25T11:14:13.894Z,12.70
2022-11-25T11:16:45.417Z,13.40
2022-11-25T11:19:31.914Z,14.40
2022-11-25T11:22:15.998Z,13.80
2022-11-25T11:24:42.852Z,13.50
2022-11-25T11:27:19.234Z,13.40
2022-11-25T11:29:46.023Z,13.50
2022-11-25T11:32:25.491Z,13.20
2022-11-25T11:35:24.696Z,14.00
2022-11-25T11:38:02.548Z,13.30
2022-11-25T11:40:46.540Z,13.50
2022-11-25T11:43:50.615Z,13.90
2022-11-25T11:46:54.827Z,13.20
2022-11-25T11:49:48.778Z,13.50
2022-11-25T11:52:31.732Z,13.50
2022-11-25T11:55:05.881Z,13.80
2022-11-25T11:57:57.807Z,13.60
2022-11-25T12:00:27.082Z,13.80
2022-11-25T12:03:11.094Z,14.30
2022-11-25T12:05:40.500Z,13.60
2022-11-25T12:08:34.914Z,14.20
2022-11-25T12:11:05.789Z,14.30
2022-11-25T12:14:10.088Z,14.00
2022-11-25T12:16:46.943Z,14.30
2022-11-25T12:19:27.072Z,14.70
2022-11-25T12:22:19.664Z,14.20
2022-11-25T12:24:56.966Z,14.10
2022-11-25T12:27:31.361Z,14.40
2022-11-25T12:30:12.090Z,14.50
2022-11-25T12:33:01.695Z,14.20
2022-11-25T12:35:43.595Z,14.30
2022-11-25T12:38:36.527Z,13.90
2022-11-25T12:41:24.628Z,14.30
2022-11-25T12:44:12.929Z,14.20
2022-11-25T12:46:48.941Z,14.20
2022-11-25T12:49:40.716Z,14.20
2022-11-25T12:52:25.961Z,14.70
2022-11-25T12:55:20.721Z,14.20
2022-11-25T12:58:24.818Z,14.10
2022-11-25T13:01:16.435Z,14.40
2022-11-25T13:04:20.705Z,14.20
2022-11-25T13:07:08.107Z,13.80
2022-11-25T13:09:46.613Z,13.80
2022-11-25T13:12:43.690Z,13.90
2022-11-25T13:15:25.880Z,14.20
2022-11-25T13:17:59.032Z,14.50
2022-11-25T13:20:29.907Z,14.80
2022-11-25T13:23:05.593Z,14.40
2022-11-25T13:25:32.655Z,14.40
2022-11-25T13:28:01.999Z,14.30
2022-11-25T13:30:34.620Z,14.20
2022-11-25T13:33:12.923Z,14.40
2022-11-25T13:35:54.315Z,14.70
2022-11-25T13:38:35.358Z,14.40
2022-11-25T13:41:09.627Z,14.20
2022-11-25T13:44:01.621Z,13.90
2022-11-25T13:46:49.267Z,13.90
2022-11-25T13:49:30.039Z,14.20
2022-11-25T13:52:42.177Z,13.70
2022-11-25T13:55:17.790Z,14.00
2022-11-25T13:57:48.457Z,13.90
2022-11-25T14:00:19.248Z,13.70
2022-11-25T14:02:49.441Z,13.90
2022-11-25T14:05:45.710Z,13.60
2022-11-25T14:08:37.817Z,13.60
2022-11-25T14:11:10.505Z,13.80
2022-11-25T14:13:55.869Z,13.70
2022-11-25T14:16:49.848Z,13.90
2022-11-25T14:19:52.652Z,13.80
2022-11-25T14:22:41.464Z,14.30
2022-11-25T14:25:22.197Z,14.00
2022-11-25T14:28:25.975Z,13.90
2022-11-25T14:30:58.799Z,13.90
2022-11-25T14:33:33.215Z,13.70
2022-11-25T14:36:12.192Z,14.30
2022-11-25T14:38:47.155Z,14.40
2022-11-25T14:41:19.797Z,14.00
2022-11-25T14:43:55.979Z,13.70
2022-11-25T14:46:25.658Z,14.10
2022-11-25T14:49:02.899Z,14.20
2022-11-25T14:51:37.805Z,13.90
2022-11-25T14:54:09.057Z,13.90
2022-11-25T14:56:37.619Z,13.60
2022-11-25T14:59:07.254Z,13.70
2022-11-25T15:01:35.812Z,13.50
2022-11-25T15:04:06.300Z,13.60
2022-11-25T15:06:38.894Z,13.60
2022-11-25T15:09:23.646Z,13.60
2022-11-25T15:12:01.871Z,13.90
2022-11-25T15:14:33.003Z,13.90
2022-11-25T15:17:01.232Z,13.80
2022-11-25T15:19:34.044Z,13.90
2022-11-25T15:27:45.491Z,13.80
2022-11-25T15:30:23.370Z,13.90
2022-11-25T15:32:50.948Z,14.00
2022-11-25T15:35:21.376Z,13.90
2022-11-25T15:37:49.209Z,13.80
2022-11-25T15:40:41.959Z,13.70
2022-11-25T15:43:25.508Z,13.80
2022-11-25T15:46:00.325Z,13.70
2022-11-25T15:48:34.523Z,13.70
2022-11-25T15:51:06.351Z,13.70
2022-11-25T15:53:37.658Z,13.60
2022-11-25T15:56:10.281Z,13.60
2022-11-25T15:58:36.993Z,13.60
2022-11-25T16:01:15.965Z,13.60
2022-11-25T16:03:43.999Z,13.70
2022-11-25T16:06:21.426Z,13.60
2022-11-25T16:09:00.626Z,13.70
2022-11-25T16:11:33.974Z,13.60
2022-11-25T16:14:28.813Z,13.70
2022-11-25T16:17:10.931Z,13.50
2022-11-25T16:19:44.192Z,13.50
2022-11-25T16:22:20.404Z,13.40
2022-11-25T16:28:40.854Z,13.20
2022-11-25T16:31:15.640Z,13.30
2022-11-25T16:33:42.487Z,13.40
2022-11-25T16:36:09.773Z,13.30
2022-11-25T16:38:36.610Z,13.20
2022-11-25T16:41:18.457Z,13.20
2022-11-25T16:43:45.114Z,13.40
2022-11-25T16:46:16.951Z,13.30
2022-11-25T16:48:44.135Z,13.30
2022-11-25T16:51:19.606Z,13.30
2022-11-25T16:53:47.320Z,13.30
2022-11-25T16:56:29.584Z,13.30
2022-11-25T16:58:57.599Z,13.30
2022-11-25T17:01:27.573Z,13.20
2022-11-25T17:03:54.461Z,13.30
2022-11-25T17:06:24.319Z,13.30
2022-11-25T17:08:51.708Z,13.20
2022-11-25T17:11:29.573Z,13.20
2022-11-25T17:14:00.862Z,13.20
2022-11-25T17:16:29.408Z,13.20
2022-11-25T17:18:59.301Z,13.30
2022-11-25T17:21:28.687Z,13.20
2022-11-25T17:24:02.811Z,13.10
2022-11-25T17:26:37.859Z,13.10
2022-11-25T17:29:11.773Z,13.10
2022-11-25T17:31:38.951Z,13.20
2022-11-25T17:34:06.817Z,13.10
2022-11-25T17:36:33.602Z,13.10
2022-11-25T17:39:00.261Z,13.20
2022-11-25T17:41:29.165Z,13.20
2022-11-25T17:43:56.145Z,13.10
2022-11-25T17:46:24.834Z,13.20
2022-11-25T17:48:51.903Z,13.20
2022-11-25T17:51:18.646Z,13.20
2022-11-25T17:53:47.038Z,13.20
2022-11-25T17:56:19.853Z,13.10
2022-11-25T17:58:47.003Z,13.10
2022-11-25T18:01:13.987Z,13.10
2022-11-25T18:03:40.852Z,13.10
2022-11-25T18:06:13.465Z,13.10
2022-11-25T18:08:47.301Z,13.10
2022-11-25T18:11:17.966Z,13.10
2022-11-25T18:13:46.900Z,13.00
2022-11-25T18:16:18.030Z,13.00
2022-11-25T18:18:44.826Z,12.90
2022-11-25T18:21:11.943Z,12.90
2022-11-25T18:23:38.720Z,13.00
2022-11-25T18:26:05.793Z,13.00
2022-11-25T18:28:33.156Z,13.00
2022-11-25T18:31:06.295Z,12.90
2022-11-25T18:33:33.281Z,12.90
2022-11-25T18:36:01.241Z,12.80
2022-11-25T18:38:27.952Z,13.00
2022-11-25T18:40:58.676Z,12.80
2022-11-25T18:43:27.359Z,12.80
2022-11-25T18:45:59.677Z,12.80
2022-11-25T18:48:27.016Z,12.80
2022-11-25T18:50:57.731Z,12.80
2022-11-25T18:53:24.432Z,12.80
2022-11-25T18:55:51.286Z,12.90
2022-11-25T18:58:22.563Z,12.90
2022-11-25T19:00:50.997Z,12.80
2022-11-25T19:03:26.118Z,12.80
2022-11-25T19:05:59.335Z,12.70
2022-11-25T19:08:26.059Z,12.70
2022-11-25T19:10:52.952Z,12.50
2022-11-25T19:13:31.648Z,12.20
2022-11-25T19:16:13.454Z,11.90
2022-11-25T19:18:40.997Z,11.90
2022-11-25T19:21:17.225Z,11.70
2022-11-25T19:23:44.333Z,11.50
2022-11-25T19:26:15.431Z,11.40
2022-11-25T19:28:45.049Z,11.20
2022-11-25T19:31:12.967Z,11.10
2022-11-25T19:33:43.102Z,11.20
2022-11-25T19:36:23.689Z,11.10
2022-11-25T19:38:50.341Z,11.30
2022-11-25T19:41:17.082Z,11.30
2022-11-25T19:43:43.882Z,11.40
2022-11-25T19:46:36.762Z,11.70
2022-11-25T19:49:08.147Z,11.70
2022-11-25T19:51:35.078Z,11.90
2022-11-25T19:54:01.735Z,11.80
2022-11-25T19:56:28.604Z,11.70
2022-11-25T19:58:56.367Z,11.80
2022-11-25T20:01:43.348Z,11.80
2022-11-25T20:04:18.590Z,11.80
2022-11-25T20:06:45.604Z,11.70
2022-11-25T20:09:12.946Z,11.70
2022-11-25T20:11:39.680Z,11.80
2022-11-25T20:14:06.520Z,11.70
2022-11-25T20:16:38.638Z,11.80
2022-11-25T20:19:07.038Z,11.80
2022-11-25T20:21:39.748Z,11.70
2022-11-25T20:24:14.696Z,11.70
2022-11-25T20:26:45.847Z,11.70
2022-11-25T20:29:19.395Z,11.80
2022-11-25T20:31:46.599Z,11.70
2022-11-25T20:34:13.590Z,11.70
2022-11-25T20:36:42.468Z,11.70
2022-11-25T20:39:17.691Z,11.70
2022-11-25T20:41:48.825Z,11.70
2022-11-25T20:44:15.637Z,11.70
2022-11-25T20:46:42.408Z,11.60
2022-11-25T20:49:23.739Z,11.60
2022-11-25T20:51:50.612Z,11.50
2022-11-25T20:54:17.781Z,11.50
2022-11-25T20:56:44.604Z,11.60
2022-11-25T20:59:23.517Z,11.50
2022-11-25T21:01:50.850Z,11.50
2022-11-25T21:04:18.426Z,11.50
2022-11-25T21:06:45.800Z,11.70
2022-11-25T21:09:19.666Z,11.60
2022-11-25T21:11:47.491Z,11.60
2022-11-25T21:14:16.321Z,11.50
2022-11-25T21:16:46.018Z,11.80
2022-11-25T21:19:12.987Z,11.50
2022-11-25T21:21:42.883Z,11.30
2022-11-25T21:24:18.654Z,11.30
2022-11-25T21:26:45.336Z,11.30
2022-11-25T21:29:16.814Z,11.40
2022-11-25T21:31:45.089Z,11.40
2022-11-25T21:34:13.748Z,11.40
2022-11-25T21:36:42.160Z,11.40
2022-11-25T21:39:20.135Z,11.40
2022-11-25T21:41:46.950Z,11.40
2022-11-25T21:44:21.370Z,11.50
2022-11-25T21:46:48.126Z,11.40
2022-11-25T21:49:15.828Z,11.40
2022-11-25T21:51:42.499Z,11.40
2022-11-25T21:54:10.490Z,11.30
2022-11-25T21:56:44.622Z,11.40
2022-11-25T21:59:19.229Z,11.30
2022-11-25T22:01:46.941Z,11.40
2022-11-25T22:04:15.749Z,11.30
2022-11-25T22:06:42.855Z,11.40
2022-11-25T22:09:10.598Z,11.40
2022-11-25T22:11:39.679Z,11.40
2022-11-25T22:14:29.139Z,11.40
2022-11-25T22:16:57.014Z,11.30
2022-11-25T22:19:26.124Z,11.30
2022-11-25T22:21:53.160Z,11.30
2022-11-25T22:24:21.000Z,11.40
2022-11-25T22:26:53.470Z,11.30
2022-11-25T22:29:35.381Z,11.30
2022-11-25T22:32:07.013Z,11.30
2022-11-25T22:34:36.767Z,11.30
2022-11-25T22:37:03.790Z,11.30
2022-11-25T22:39:30.508Z,11.40
2022-11-25T22:42:06.995Z,11.30
2022-11-25T22:44:38.196Z,11.20
2022-11-25T22:47:06.288Z,11.20
2022-11-25T22:49:47.612Z,11.10
2022-11-25T22:52:25.288Z,11.30
2022-11-25T22:54:52.647Z,11.20
2022-11-25T22:57:19.898Z,11.20
2022-11-25T22:59:46.838Z,11.10
2022-11-25T23:02:23.657Z,11.10
2022-11-25T23:04:55.588Z,11.20
2022-11-25T23:07:23.906Z,11.20
2022-11-25T23:09:51.316Z,11.20
2022-11-25T23:12:18.796Z,11.10
2022-11-25T23:14:45.897Z,11.10
2022-11-25T23:17:17.717Z,11.10
2022-11-25T23:19:44.457Z,11.10
2022-11-25T23:22:11.700Z,11.20
2022-11-25T23:24:43.352Z,11.10
2022-11-25T23:29:55.247Z,11.20
2022-11-25T23:32:21.981Z,11.20
2022-11-25T23:34:50.611Z,11.10
2022-11-25T23:37:17.561Z,11.20
2022-11-25T23:39:50.086Z,11.20
2022-11-25T23:42:18.736Z,11.10
2022-11-25T23:44:48.166Z,11.00
2022-11-25T23:47:19.463Z,11.00
2022-11-25T23:49:48.786Z,11.10
2022-11-25T23:52:23.623Z,11.10
2022-11-25T23:54:52.156Z,10.90
2022-11-25T23:57:25.038Z,11.00
2022-11-25T23:59:52.579Z,10.90
